Sparta, WI

1:01 PM CDT on June 25, 2017 (GMT -0500)
Sparta-Fort McCoy

Weather History for KCMY - October, 2011

Change the Weather History Date:

Tuesday, October 4, 2011

  Actual Average Record
Temperature  
Mean Temperature 58 °F -  
Max Temperature 77 °F 67 °F 86 °F (2005)
Min Temperature 38 °F 41 °F 24 °F (1987)
Degree Days  
Heating Degree Days 8    
Growing Degree Days 8 (Base 50)    
Moisture  
Dew Point 45 °F    
Average Humidity 73    
Maximum Humidity 99    
Minimum Humidity 30    
Precipitation  
Precipitation 0.00 in - - ()
Sea Level Pressure  
Sea Level Pressure 30.22 in    
Wind  
Wind Speed 1 mph (South)    
Max Wind Speed 9 mph    
Max Gust Speed -    
Visibility 10 miles    
Events      
Averages and records for this station are not official NWS values.
T = Trace of Precipitation, MM = Missing Value Source: NWS Daily Summary

Daily Weather History Graph

Daily Weather History Graph

Search for Another Location

Airport or City:

Trip Planner

Search our weather history database for the weather conditions in past years. The results will help you decide how hot, cold, wet, or windy it might be!

Date:

Astronomy

Oct. 04, 2011 Rise Set
Actual Time 7:03 AM CDT 6:38 PM CDT
Civil Twilight 6:35 AM CDT 7:07 PM CDT
Nautical Twilight 6:01 AM CDT 7:40 PM CDT
Astronomical Twilight 5:27 AM CDT 8:14 PM CDT
Moon 2:53 PM CDT (10/4) No Moon Set
Length of Visible Light 12h 32m
Length of Day
11h 35m
First Quarter, 56% of the Moon is Illuminated
Oct 4
First Quarter
Oct 11
Full
Oct 19
Last Quarter
Oct 26
New
Nov 2
First Quarter

Hourly Weather History & Observations

Time (CDT) Temp. Dew Point Humidity Pressure Visibility Wind Dir Wind Speed Gust Speed Precip Events Conditions
12:15 AM 44.1 °F 43.5 °F 98% 30.23 in 10.0 mi Calm Calm - N/A   Clear
12:35 AM 43.3 °F 42.8 °F 98% 30.23 in 10.0 mi Calm Calm - N/A   Clear
12:55 AM 42.8 °F 42.1 °F 97% 30.24 in 10.0 mi Calm Calm - N/A   Clear
1:15 AM 42.6 °F 41.9 °F 97% 30.24 in 10.0 mi Calm Calm - N/A   Clear
1:35 AM 42.3 °F 41.5 °F 97% 30.23 in 10.0 mi Calm Calm - N/A   Clear
1:55 AM 42.3 °F 41.5 °F 97% 30.24 in 10.0 mi Calm Calm - N/A   Clear
2:15 AM 42.6 °F 41.5 °F 96% 30.24 in 10.0 mi Calm Calm - N/A   Clear
2:35 AM 42.4 °F 41.4 °F 96% 30.24 in 10.0 mi Calm Calm - N/A   Clear
3:35 AM 41.4 °F 40.8 °F 98% 30.25 in 10.0 mi Calm Calm - N/A   Clear
4:15 AM 41.0 °F 40.6 °F 99% 30.25 in 10.0 mi Calm Calm - N/A   Clear
4:35 AM 41.2 °F 40.6 °F 98% 30.25 in 10.0 mi Calm Calm - N/A   Clear
4:55 AM 40.5 °F 40.1 °F 99% 30.25 in 10.0 mi Calm Calm - N/A   Clear
5:15 AM 40.6 °F 39.9 °F 97% 30.26 in 10.0 mi Calm Calm - N/A   Clear
5:35 AM 39.6 °F 39.2 °F 99% 30.25 in 10.0 mi Calm Calm - N/A   Clear
5:55 AM 39.2 °F 39.0 °F 99% 30.26 in 10.0 mi Calm Calm - N/A   Clear
6:15 AM 38.8 °F 38.5 °F 99% 30.25 in 10.0 mi Calm Calm - N/A   Clear
6:35 AM 38.8 °F 38.5 °F 99% 30.25 in 10.0 mi Calm Calm - N/A   Clear
7:15 AM 38.5 °F 38.1 °F 99% 30.27 in 10.0 mi Calm Calm - N/A   Clear
7:35 AM 38.7 °F 38.3 °F 99% 30.27 in 10.0 mi Calm Calm - N/A   Clear
7:55 AM 40.5 °F 39.9 °F 98% 30.27 in 10.0 mi Calm Calm - N/A   Clear
8:15 AM 43.5 °F 41.9 °F 94% 30.27 in 10.0 mi Calm Calm - N/A   Clear
8:35 AM 46.2 °F 44.1 °F 92% 30.27 in 10.0 mi Calm Calm - N/A   Clear
9:15 AM 53.4 °F 48.6 °F 84% 30.28 in 10.0 mi Calm Calm - N/A   Clear
9:35 AM 56.3 °F 48.9 °F 76% 30.28 in 10.0 mi Calm Calm - N/A   Clear
10:15 AM 61.5 °F 49.5 °F 65% 30.27 in 10.0 mi Calm Calm - N/A   Clear
10:35 AM 64.2 °F 49.5 °F 59% 30.27 in 10.0 mi Calm Calm - N/A   Clear
10:55 AM 66.7 °F 49.3 °F 53% 30.27 in 10.0 mi SSE 3.5 mph - N/A   Clear
11:35 AM 70.5 °F 48.2 °F 45% 30.26 in 10.0 mi South 5.8 mph - N/A   Clear
11:55 AM 71.8 °F 48.2 °F 43% 30.25 in 10.0 mi SSW 5.8 mph - N/A   Clear
12:15 PM 72.9 °F 48.0 °F 41% 30.25 in 10.0 mi South 6.9 mph - N/A   Clear
12:35 PM 74.1 °F 48.2 °F 40% 30.24 in 10.0 mi SSW 5.8 mph - N/A   Clear
12:55 PM 75.0 °F 47.3 °F 37% 30.23 in 10.0 mi SSE 8.1 mph - N/A   Clear
1:15 PM 75.9 °F 45.1 °F 33% 30.23 in 10.0 mi SSE 6.9 mph - N/A   Clear
1:35 PM 76.3 °F 44.4 °F 32% 30.22 in 10.0 mi SSE 6.9 mph - N/A   Clear
2:15 PM 76.8 °F 44.1 °F 31% 30.20 in 10.0 mi SSW 6.9 mph - N/A   Clear
2:55 PM 77.9 °F 45.0 °F 31% 30.19 in 10.0 mi SSW 8.1 mph - N/A   Clear
3:15 PM 77.9 °F 43.9 °F 30% 30.19 in 10.0 mi South 9.2 mph - N/A   Clear
3:35 PM 77.5 °F 43.9 °F 30% 30.18 in 10.0 mi SSW 5.8 mph - N/A   Clear
4:15 PM 77.5 °F 43.9 °F 30% 30.17 in 10.0 mi SSW 6.9 mph - N/A   Clear
4:35 PM 77.4 °F 44.1 °F 31% 30.16 in 10.0 mi South 4.6 mph - N/A   Clear
4:55 PM 77.2 °F 45.0 °F 32% 30.16 in 10.0 mi SSE 8.1 mph - N/A   Clear
5:15 PM 76.8 °F 45.0 °F 32% 30.16 in 10.0 mi South 4.6 mph - N/A   Clear
5:35 PM 75.9 °F 45.5 °F 34% 30.16 in 10.0 mi South 3.5 mph - N/A   Clear
5:55 PM 74.3 °F 47.1 °F 38% 30.16 in 10.0 mi SSE 4.6 mph - N/A   Clear
6:15 PM 71.8 °F 49.3 °F 45% 30.16 in 10.0 mi SSE 3.5 mph - N/A   Clear
6:35 PM 69.1 °F 50.4 °F 51% 30.16 in 10.0 mi Calm Calm - N/A   Clear
6:55 PM 64.8 °F 51.3 °F 62% 30.16 in 10.0 mi Calm Calm - N/A   Clear
7:15 PM 60.8 °F 52.0 °F 73% 30.17 in 10.0 mi Calm Calm - N/A   Clear
7:35 PM 59.0 °F 51.4 °F 76% 30.17 in 10.0 mi East 4.6 mph - N/A   Clear
7:55 PM 57.2 °F 51.1 °F 80% 30.17 in 10.0 mi Calm Calm - N/A   Clear
8:15 PM 55.8 °F 50.4 °F 82% 30.17 in 10.0 mi East 4.6 mph - N/A   Clear
8:35 PM 55.6 °F 50.4 °F 83% 30.17 in 10.0 mi East 3.5 mph - N/A   Clear
8:55 PM 54.7 °F 50.0 °F 84% 30.17 in 10.0 mi Calm Calm - N/A   Clear
9:35 PM 52.9 °F 49.1 °F 87% 30.18 in 10.0 mi Calm Calm - N/A   Clear
9:55 PM 51.6 °F 48.2 °F 88% 30.18 in 10.0 mi Calm Calm - N/A   Clear
10:15 PM 49.8 °F 47.7 °F 92% 30.18 in 10.0 mi Calm Calm - N/A   Clear
10:35 PM 49.3 °F 47.3 °F 93% 30.17 in 10.0 mi Calm Calm - N/A   Clear
10:55 PM 48.6 °F 47.7 °F 97% 30.18 in 10.0 mi Calm Calm - N/A   Clear
11:15 PM 47.3 °F 46.4 °F 97% 30.17 in 10.0 mi Calm Calm - N/A   Clear
11:35 PM 46.9 °F 46.0 °F 97% 30.18 in 10.0 mi Calm Calm - N/A   Clear
11:55 PM 46.4 °F 45.7 °F 97% 30.18 in 10.0 mi Calm Calm - N/A   Clear